sensor_id;sensor_type;location;lat;lon;timestamp;P1;P2;P0
45112;PMS5003;30873;53.908;27.576;2023-10-13T00:01:14;4.5;2.5;1.2
45112;PMS5003;30873;53.908;27.576;2023-10-13T00:05:40;4.4;3;1.3
45112;PMS5003;30873;53.908;27.576;2023-10-13T00:10:48;4.6;3.3;1.4
45112;PMS5003;30873;53.908;27.576;2023-10-13T00:16:02;3.2;2.4;1.1
45112;PMS5003;30873;53.908;27.576;2023-10-13T00:20:54;4.1;2.2;1.5
45112;PMS5003;30873;53.908;27.576;2023-10-13T00:26:16;2.9;2.6;1.2
45112;PMS5003;30873;53.908;27.576;2023-10-13T00:30:52;3.8;2.7;1.3
45112;PMS5003;30873;53.908;27.576;2023-10-13T00:35:50;4.9;2.4;1.2
45112;PMS5003;30873;53.908;27.576;2023-10-13T00:40:28;3.4;2.1;1.2
45112;PMS5003;30873;53.908;27.576;2023-10-13T00:45:28;3.4;1.9;0.9
45112;PMS5003;30873;53.908;27.576;2023-10-13T00:51:14;5;2.6;1.3
45112;PMS5003;30873;53.908;27.576;2023-10-13T00:55:28;3.7;2.8;1.4
45112;PMS5003;30873;53.908;27.576;2023-10-13T01:00:54;4;3;1.6
45112;PMS5003;30873;53.908;27.576;2023-10-13T01:06:00;4.9;3.1;1.6
45112;PMS5003;30873;53.908;27.576;2023-10-13T01:11:14;4.5;2.4;1.6
45112;PMS5003;30873;53.908;27.576;2023-10-13T01:16:14;5.3;4.5;1.8
45112;PMS5003;30873;53.908;27.576;2023-10-13T01:21:15;3.5;3.1;1.4
45112;PMS5003;30873;53.908;27.576;2023-10-13T01:25:34;5.4;3.6;1.7
45112;PMS5003;30873;53.908;27.576;2023-10-13T01:30:28;4.6;3.4;2
45112;PMS5003;30873;53.908;27.576;2023-10-13T01:35:28;5.4;4;1.8
45112;PMS5003;30873;53.908;27.576;2023-10-13T01:41:04;3.9;3.5;1.7
45112;PMS5003;30873;53.908;27.576;2023-10-13T01:45:34;3.5;2.6;1.4
45112;PMS5003;30873;53.908;27.576;2023-10-13T01:50:48;4;3.2;1.7
45112;PMS5003;30873;53.908;27.576;2023-10-13T01:56:00;4.2;3.4;1.7
45112;PMS5003;30873;53.908;27.576;2023-10-13T02:01:14;3.4;2.6;1.6
45112;PMS5003;30873;53.908;27.576;2023-10-13T02:06:14;4.4;3.4;1.9
45112;PMS5003;30873;53.908;27.576;2023-10-13T02:10:52;3.8;2.9;1.6
45112;PMS5003;30873;53.908;27.576;2023-10-13T02:15:28;4.4;3.2;1.6
45112;PMS5003;30873;53.908;27.576;2023-10-13T02:20:28;5.7;3.6;1.4
45112;PMS5003;30873;53.908;27.576;2023-10-13T02:26:14;3.7;2.9;1.3
45112;PMS5003;30873;53.908;27.576;2023-10-13T02:30:40;3.2;2.6;1.5
45112;PMS5003;30873;53.908;27.576;2023-10-13T02:36:14;4.5;2.7;1.1
45112;PMS5003;30873;53.908;27.576;2023-10-13T02:40:28;4.9;3.4;1.8
45112;PMS5003;30873;53.908;27.576;2023-10-13T02:46:08;4.2;2.8;1.5
45112;PMS5003;30873;53.908;27.576;2023-10-13T02:51:14;4.4;3.4;1.6
45112;PMS5003;30873;53.908;27.576;2023-10-13T02:55:48;4.4;2.8;1.5
45112;PMS5003;30873;53.908;27.576;2023-10-13T03:00:48;4.5;3.3;2.1
45112;PMS5003;30873;53.908;27.576;2023-10-13T03:05:54;5.1;3.6;1.4
45112;PMS5003;30873;53.908;27.576;2023-10-13T03:10:48;4.7;3;1.3
45112;PMS5003;30873;53.908;27.576;2023-10-13T03:16:14;5.2;4.3;2.4
45112;PMS5003;30873;53.908;27.576;2023-10-13T03:20:52;5.4;4;2
45112;PMS5003;30873;53.908;27.576;2023-10-13T03:26:14;5.6;4.2;2.3
45112;PMS5003;30873;53.908;27.576;2023-10-13T03:30:28;6.5;4.5;2.5
45112;PMS5003;30873;53.908;27.576;2023-10-13T03:36:08;7.2;4.4;2.2
45112;PMS5003;30873;53.908;27.576;2023-10-13T03:41:14;6.5;4.9;2.4
45112;PMS5003;30873;53.908;27.576;2023-10-13T03:45:46;7.7;5.4;2.2
45112;PMS5003;30873;53.908;27.576;2023-10-13T03:51:14;5.3;3.9;1.9
45112;PMS5003;30873;53.908;27.576;2023-10-13T03:55:34;4.8;4.4;2.5
45112;PMS5003;30873;53.908;27.576;2023-10-13T04:00:28;6.3;4.3;2.2
45112;PMS5003;30873;53.908;27.576;2023-10-13T04:06:14;5.7;4.2;2.6
45112;PMS5003;30873;53.908;27.576;2023-10-13T04:10:30;4.6;4.1;2.2
45112;PMS5003;30873;53.908;27.576;2023-10-13T04:16:14;3.8;3.3;2
45112;PMS5003;30873;53.908;27.576;2023-10-13T04:21:00;5.6;4.7;2.5
45112;PMS5003;30873;53.908;27.576;2023-10-13T04:26:08;6.6;4.9;2.6
45112;PMS5003;30873;53.908;27.576;2023-10-13T04:31:15;7.3;6.4;3.7
45112;PMS5003;30873;53.908;27.576;2023-10-13T04:35:40;6.9;5.3;2.8
45112;PMS5003;30873;53.908;27.576;2023-10-13T04:41:12;6.6;6;3.5
45112;PMS5003;30873;53.908;27.576;2023-10-13T04:45:28;8.2;7.7;4.9
45112;PMS5003;30873;53.908;27.576;2023-10-13T04:50:28;9.6;8.1;5.4
45112;PMS5003;30873;53.908;27.576;2023-10-13T04:56:14;10.5;8.7;5.3
45112;PMS5003;30873;53.908;27.576;2023-10-13T05:00:52;9.5;7.9;4.9
45112;PMS5003;30873;53.908;27.576;2023-10-13T05:06:14;8;6.2;3.6
45112;PMS5003;30873;53.908;27.576;2023-10-13T05:10:28;7.7;7;4.9
45112;PMS5003;30873;53.908;27.576;2023-10-13T05:16:08;8.7;7.3;5
45112;PMS5003;30873;53.908;27.576;2023-10-13T05:21:06;8.4;7.1;5
45112;PMS5003;30873;53.908;27.576;2023-10-13T05:26:08;7.9;6.7;4.2
45112;PMS5003;30873;53.908;27.576;2023-10-13T05:31:14;8.6;7.4;4.5
45112;PMS5003;30873;53.908;27.576;2023-10-13T05:35:30;9.7;8.5;5
45112;PMS5003;30873;53.908;27.576;2023-10-13T05:40:28;9.5;7.7;5.3
45112;PMS5003;30873;53.908;27.576;2023-10-13T05:46:14;9.3;6.9;4.1
45112;PMS5003;30873;53.908;27.576;2023-10-13T05:50:52;9.2;8.1;4.8
45112;PMS5003;30873;53.908;27.576;2023-10-13T05:56:14;9.6;8.6;5.3
45112;PMS5003;30873;53.908;27.576;2023-10-13T06:00:54;10.7;8.8;5.3
45112;PMS5003;30873;53.908;27.576;2023-10-13T06:06:08;8.5;7.5;4.6
45112;PMS5003;30873;53.908;27.576;2023-10-13T06:11:14;10.8;9.7;6
45112;PMS5003;30873;53.908;27.576;2023-10-13T06:15:44;10.2;8.3;4.6
45112;PMS5003;30873;53.908;27.576;2023-10-13T06:21:16;12.1;9.3;5.8
45112;PMS5003;30873;53.908;27.576;2023-10-13T06:25:34;7.3;6.4;3.6
45112;PMS5003;30873;53.908;27.576;2023-10-13T06:30:28;8;6;3.8
45112;PMS5003;30873;53.908;27.576;2023-10-13T06:36:16;7.8;6.3;3.8
45112;PMS5003;30873;53.908;27.576;2023-10-13T06:41:14;9.4;6.5;3.3
45112;PMS5003;30873;53.908;27.576;2023-10-13T06:46:16;9.1;7.7;4.5
45112;PMS5003;30873;53.908;27.576;2023-10-13T06:50:34;8;7.5;4.9
45112;PMS5003;30873;53.908;27.576;2023-10-13T06:56:08;8.5;7.2;4
45112;PMS5003;30873;53.908;27.576;2023-10-13T07:01:14;8.8;6.8;4.5
45112;PMS5003;30873;53.908;27.576;2023-10-13T07:05:46;8.7;7;4.4
45112;PMS5003;30873;53.908;27.576;2023-10-13T07:10:46;8.6;6.6;4
45112;PMS5003;30873;53.908;27.576;2023-10-13T07:15:34;7.7;6.6;4.3
45112;PMS5003;30873;53.908;27.576;2023-10-13T07:20:54;8;6.5;3.9
45112;PMS5003;30873;53.908;27.576;2023-10-13T07:26:16;7.4;6.5;3.9
45112;PMS5003;30873;53.908;27.576;2023-10-13T07:30:54;9;7.4;4.4
45112;PMS5003;30873;53.908;27.576;2023-10-13T07:36:08;10.4;7.6;4.7
45112;PMS5003;30873;53.908;27.576;2023-10-13T07:40:54;11.2;9.4;6.4
45112;PMS5003;30873;53.908;27.576;2023-10-13T07:46:08;9.3;8.3;5.3
45112;PMS5003;30873;53.908;27.576;2023-10-13T07:51:16;6.8;6;3.2
45112;PMS5003;30873;53.908;27.576;2023-10-13T07:55:45;8.1;6.3;4.2
45112;PMS5003;30873;53.908;27.576;2023-10-13T08:00:54;18.8;18.1;13.4
45112;PMS5003;30873;53.908;27.576;2023-10-13T08:05:28;12.6;11.1;8.3
45112;PMS5003;30873;53.908;27.576;2023-10-13T08:10:28;8.6;6.9;4.2
45112;PMS5003;30873;53.908;27.576;2023-10-13T08:16:16;8.4;6.8;3.9
45112;PMS5003;30873;53.908;27.576;2023-10-13T08:20:54;7.3;6.2;3.2
45112;PMS5003;30873;53.908;27.576;2023-10-13T08:26:09;8.3;6.7;4.3
45112;PMS5003;30873;53.908;27.576;2023-10-13T08:31:02;7.1;5;2.9
45112;PMS5003;30873;53.908;27.576;2023-10-13T08:36:08;6.8;4.6;2.3
45112;PMS5003;30873;53.908;27.576;2023-10-13T08:41:16;4;3.4;1.7
45112;PMS5003;30873;53.908;27.576;2023-10-13T08:45:46;5.2;4;2.4
45112;PMS5003;30873;53.908;27.576;2023-10-13T08:50:35;6.2;4.9;2.4
45112;PMS5003;30873;53.908;27.576;2023-10-13T08:55:40;5.2;3.8;2.3
45112;PMS5003;30873;53.908;27.576;2023-10-13T09:00:28;6.5;5.2;2.8
45112;PMS5003;30873;53.908;27.576;2023-10-13T09:06:16;7.5;5.8;2.4
45112;PMS5003;30873;53.908;27.576;2023-10-13T09:10:57;5.8;4.5;2.2
45112;PMS5003;30873;53.908;27.576;2023-10-13T09:16:09;6.7;5.1;2.8
45112;PMS5003;30873;53.908;27.576;2023-10-13T09:21:02;5.1;4;2.4
45112;PMS5003;30873;53.908;27.576;2023-10-13T09:26:08;9.2;7.8;6
45112;PMS5003;30873;53.908;27.576;2023-10-13T09:31:21;8.6;6.4;4.7
45112;PMS5003;30873;53.908;27.576;2023-10-13T09:35:46;5.4;4;2.3
45112;PMS5003;30873;53.908;27.576;2023-10-13T09:40:34;4.1;2.7;1.9
45112;PMS5003;30873;53.908;27.576;2023-10-13T09:45:34;4.9;3;1.7
45112;PMS5003;30873;53.908;27.576;2023-10-13T09:50:36;3.9;2.9;1.7
45112;PMS5003;30873;53.908;27.576;2023-10-13T09:56:18;7.5;6.6;4.3
45112;PMS5003;30873;53.908;27.576;2023-10-13T10:00:56;18.4;17.2;12.7
45112;PMS5003;30873;53.908;27.576;2023-10-13T10:06:08;9.6;9.3;8.1
45112;PMS5003;30873;53.908;27.576;2023-10-13T10:10:56;3.3;2.6;1.3
45112;PMS5003;30873;53.908;27.576;2023-10-13T10:16:03;3.3;2.8;1.6
45112;PMS5003;30873;53.908;27.576;2023-10-13T10:21:14;4.7;3.5;1.9
45112;PMS5003;30873;53.908;27.576;2023-10-13T10:25:44;3.5;3.1;2.2
45112;PMS5003;30873;53.908;27.576;2023-10-13T10:31:14;4.9;3.6;1.9
45112;PMS5003;30873;53.908;27.576;2023-10-13T10:35:40;4;3;1.6
45112;PMS5003;30873;53.908;27.576;2023-10-13T10:40:55;4.3;3.1;1.4
45112;PMS5003;30873;53.908;27.576;2023-10-13T10:46:15;3.8;2.6;1.3
45112;PMS5003;30873;53.908;27.576;2023-10-13T10:50:53;4;2.9;1.4
45112;PMS5003;30873;53.908;27.576;2023-10-13T10:56:12;3.8;2.2;1.1
45112;PMS5003;30873;53.908;27.576;2023-10-13T11:01:14;4.4;2.9;1.2
45112;PMS5003;30873;53.908;27.576;2023-10-13T11:05:42;3.1;2.2;1.3
45112;PMS5003;30873;53.908;27.576;2023-10-13T11:11:06;2.9;2.5;1.2
45112;PMS5003;30873;53.908;27.576;2023-10-13T11:15:44;3.3;2.7;1.6
45112;PMS5003;30873;53.908;27.576;2023-10-13T11:20:46;4.1;3.5;2.2
45112;PMS5003;30873;53.908;27.576;2023-10-13T11:25:34;4.7;3.6;2.2
45112;PMS5003;30873;53.908;27.576;2023-10-13T11:30:40;5.1;3.5;1.5
45112;PMS5003;30873;53.908;27.576;2023-10-13T11:36:14;3.8;2.9;1.5
45112;PMS5003;30873;53.908;27.576;2023-10-13T11:40:40;4.2;3.4;2.2
45112;PMS5003;30873;53.908;27.576;2023-10-13T11:45:56;7.6;5.9;4.1
45112;PMS5003;30873;53.908;27.576;2023-10-13T11:51:14;4;3.1;1.6
45112;PMS5003;30873;53.908;27.576;2023-10-13T11:55:44;3.8;2.6;1.4
45112;PMS5003;30873;53.908;27.576;2023-10-13T12:01:06;4.7;3.6;2.1
45112;PMS5003;30873;53.908;27.576;2023-10-13T12:05:46;5;3.9;2.3
45112;PMS5003;30873;53.908;27.576;2023-10-13T12:10:28;4.8;3.8;2.2
45112;PMS5003;30873;53.908;27.576;2023-10-13T12:15:40;3.8;3.3;1.8
45112;PMS5003;30873;53.908;27.576;2023-10-13T12:20:28;5.3;3.8;2.3
45112;PMS5003;30873;53.908;27.576;2023-10-13T12:26:16;5.2;4.1;2.3
45112;PMS5003;30873;53.908;27.576;2023-10-13T12:30:29;21.6;19.4;15.6
45112;PMS5003;30873;53.908;27.576;2023-10-13T12:36:08;9;7.9;5.8
45112;PMS5003;30873;53.908;27.576;2023-10-13T12:41:16;4.3;3.3;2
45112;PMS5003;30873;53.908;27.576;2023-10-13T12:45:37;4.7;3.7;2.4
45112;PMS5003;30873;53.908;27.576;2023-10-13T12:51:16;3.2;3.1;1.7
45112;PMS5003;30873;53.908;27.576;2023-10-13T12:55:44;3.8;2.9;1.5
45112;PMS5003;30873;53.908;27.576;2023-10-13T13:00:28;4.3;3.6;2.1
45112;PMS5003;30873;53.908;27.576;2023-10-13T13:05:50;4.2;3.4;2
45112;PMS5003;30873;53.908;27.576;2023-10-13T13:10:40;5.3;4;2.6
45112;PMS5003;30873;53.908;27.576;2023-10-13T13:16:17;4.4;3.5;2
45112;PMS5003;30873;53.908;27.576;2023-10-13T13:20:40;4.7;4;2.4
45112;PMS5003;30873;53.908;27.576;2023-10-13T13:26:08;4.9;3.8;2.3
45112;PMS5003;30873;53.908;27.576;2023-10-13T13:31:16;5.9;4.7;3.2
45112;PMS5003;30873;53.908;27.576;2023-10-13T13:35:46;4.8;3.9;2
45112;PMS5003;30873;53.908;27.576;2023-10-13T13:41:11;5.1;3.9;2.2
45112;PMS5003;30873;53.908;27.576;2023-10-13T13:45:34;4.4;3.3;2.2
45112;PMS5003;30873;53.908;27.576;2023-10-13T13:50:37;5;3.9;2.6
45112;PMS5003;30873;53.908;27.576;2023-10-13T13:55:34;4.9;3.9;2.4
45112;PMS5003;30873;53.908;27.576;2023-10-13T14:00:35;5.8;4.6;3.1
45112;PMS5003;30873;53.908;27.576;2023-10-13T14:06:17;4.7;3.9;2.3
45112;PMS5003;30873;53.908;27.576;2023-10-13T14:11:02;6.9;6.4;4.7
45112;PMS5003;30873;53.908;27.576;2023-10-13T14:16:06;6.9;5.6;3.5
45112;PMS5003;30873;53.908;27.576;2023-10-13T14:21:16;6.5;4.8;3.1
45112;PMS5003;30873;53.908;27.576;2023-10-13T14:25:44;8.8;6.4;3.6
45112;PMS5003;30873;53.908;27.576;2023-10-13T14:31:08;7.5;5.4;2.8
45112;PMS5003;30873;53.908;27.576;2023-10-13T14:35:45;6.9;5.6;3.5
45112;PMS5003;30873;53.908;27.576;2023-10-13T14:40:38;9.4;8.1;4.5
45112;PMS5003;30873;53.908;27.576;2023-10-13T14:45:28;7.4;6;3.8
45112;PMS5003;30873;53.908;27.576;2023-10-13T14:50:40;7.1;4.9;3
45112;PMS5003;30873;53.908;27.576;2023-10-13T14:56:15;7.4;5.7;3.1
45112;PMS5003;30873;53.908;27.576;2023-10-13T15:00:40;7.4;6.2;3.3
45112;PMS5003;30873;53.908;27.576;2023-10-13T15:05:56;6.7;5.9;3.4
45112;PMS5003;30873;53.908;27.576;2023-10-13T15:11:15;8.8;7.4;4.7
45112;PMS5003;30873;53.908;27.576;2023-10-13T15:15:34;8.9;7.6;4.4
45112;PMS5003;30873;53.908;27.576;2023-10-13T15:21:06;10.3;8.4;5.5
45112;PMS5003;30873;53.908;27.576;2023-10-13T15:25:52;9.4;8;5
45112;PMS5003;30873;53.908;27.576;2023-10-13T15:30:30;9.7;8;4.8
45112;PMS5003;30873;53.908;27.576;2023-10-13T15:35:29;7.9;7.5;4.1
45112;PMS5003;30873;53.908;27.576;2023-10-13T15:40:41;9.4;7.2;4.4
45112;PMS5003;30873;53.908;27.576;2023-10-13T15:46:17;9.5;7.7;4.9
45112;PMS5003;30873;53.908;27.576;2023-10-13T15:50:28;9.9;8.8;4.8
45112;PMS5003;30873;53.908;27.576;2023-10-13T15:56:06;10.8;8.7;5.7
45112;PMS5003;30873;53.908;27.576;2023-10-13T16:01:15;12.4;9.6;6
45112;PMS5003;30873;53.908;27.576;2023-10-13T16:05:44;12.3;10.6;7.9
45112;PMS5003;30873;53.908;27.576;2023-10-13T16:11:08;12.2;10.3;6.4
45112;PMS5003;30873;53.908;27.576;2023-10-13T16:15:35;13.2;10.1;6.8
45112;PMS5003;30873;53.908;27.576;2023-10-13T16:20:46;10.7;8.6;5.9
45112;PMS5003;30873;53.908;27.576;2023-10-13T16:26:02;11.8;10;6.4
45112;PMS5003;30873;53.908;27.576;2023-10-13T16:30:40;11.5;10;6.2
45112;PMS5003;30873;53.908;27.576;2023-10-13T16:36:16;14.1;11.8;7.5
45112;PMS5003;30873;53.908;27.576;2023-10-13T16:40:34;10.7;10.2;6.5
45112;PMS5003;30873;53.908;27.576;2023-10-13T16:46:02;9.7;8;6
45112;PMS5003;30873;53.908;27.576;2023-10-13T16:51:17;11;9.6;6.2
45112;PMS5003;30873;53.908;27.576;2023-10-13T16:55:40;12.3;9.2;6.1
45112;PMS5003;30873;53.908;27.576;2023-10-13T17:01:08;11.1;8.3;5.6
45112;PMS5003;30873;53.908;27.576;2023-10-13T17:05:46;12.6;10.9;6.9
45112;PMS5003;30873;53.908;27.576;2023-10-13T17:10:28;14.9;12.7;8.1
45112;PMS5003;30873;53.908;27.576;2023-10-13T17:15:56;13.3;11.6;7.4
45112;PMS5003;30873;53.908;27.576;2023-10-13T17:20:40;14.3;12.1;7.2
45112;PMS5003;30873;53.908;27.576;2023-10-13T17:26:14;11.9;10.1;6.7
45112;PMS5003;30873;53.908;27.576;2023-10-13T17:30:34;12.8;10.9;7.6
45112;PMS5003;30873;53.908;27.576;2023-10-13T17:36:07;13.8;12;7.7
45112;PMS5003;30873;53.908;27.576;2023-10-13T17:41:14;14.4;12.3;8.3
45112;PMS5003;30873;53.908;27.576;2023-10-13T17:45:28;15.6;14.1;9.3
45112;PMS5003;30873;53.908;27.576;2023-10-13T17:51:07;21.6;18.8;14.2
45112;PMS5003;30873;53.908;27.576;2023-10-13T17:55:28;24.3;22.4;16.7
45112;PMS5003;30873;53.908;27.576;2023-10-13T18:00:40;18.7;16.9;11.9
45112;PMS5003;30873;53.908;27.576;2023-10-13T18:05:40;12.7;11.6;7.1
45112;PMS5003;30873;53.908;27.576;2023-10-13T18:11:02;11.5;8.6;5.5
45112;PMS5003;30873;53.908;27.576;2023-10-13T18:16:15;10.5;8.7;5.2
45112;PMS5003;30873;53.908;27.576;2023-10-13T18:20:40;16.7;14.1;10.8
45112;PMS5003;30873;53.908;27.576;2023-10-13T18:26:07;10.9;9.6;6.6
45112;PMS5003;30873;53.908;27.576;2023-10-13T18:31:14;16.9;14.4;10.1
45112;PMS5003;30873;53.908;27.576;2023-10-13T18:35:38;11.6;9.9;6
45112;PMS5003;30873;53.908;27.576;2023-10-13T18:41:08;11.8;10.1;6.8
45112;PMS5003;30873;53.908;27.576;2023-10-13T18:45:44;11.5;9.9;6.2
45112;PMS5003;30873;53.908;27.576;2023-10-13T18:50:34;15.7;13.1;9.4
45112;PMS5003;30873;53.908;27.576;2023-10-13T18:55:34;22.9;20.6;15.4
45112;PMS5003;30873;53.908;27.576;2023-10-13T19:01:16;9.4;7.7;4.7
45112;PMS5003;30873;53.908;27.576;2023-10-13T19:06:14;13.2;11.7;8.1
45112;PMS5003;30873;53.908;27.576;2023-10-13T19:10:34;10;8.8;5.6
45112;PMS5003;30873;53.908;27.576;2023-10-13T19:16:07;11.1;8.7;5.5
45112;PMS5003;30873;53.908;27.576;2023-10-13T19:21:15;11.8;9.3;5.7
45112;PMS5003;30873;53.908;27.576;2023-10-13T19:25:44;11.9;10.4;6.7
45112;PMS5003;30873;53.908;27.576;2023-10-13T19:31:14;10.8;9;5.6
45112;PMS5003;30873;53.908;27.576;2023-10-13T19:35:28;9.8;8;4.5
45112;PMS5003;30873;53.908;27.576;2023-10-13T19:40:38;10.3;8.9;5.2
45112;PMS5003;30873;53.908;27.576;2023-10-13T19:45:28;10.4;9.3;5.9
45112;PMS5003;30873;53.908;27.576;2023-10-13T19:50:35;11.8;10.4;6.2
45112;PMS5003;30873;53.908;27.576;2023-10-13T19:56:03;12.6;10.9;7.2
45112;PMS5003;30873;53.908;27.576;2023-10-13T20:01:05;12.2;10.6;7.1
45112;PMS5003;30873;53.908;27.576;2023-10-13T20:06:16;13.9;11.9;9.3
45112;PMS5003;30873;53.908;27.576;2023-10-13T20:10:56;13.9;11.9;9.2
45112;PMS5003;30873;53.908;27.576;2023-10-13T20:15:44;16.9;15.1;11.9
45112;PMS5003;30873;53.908;27.576;2023-10-13T20:21:14;15.5;13.7;10.4
45112;PMS5003;30873;53.908;27.576;2023-10-13T20:25:29;12.2;11.1;7.4
45112;PMS5003;30873;53.908;27.576;2023-10-13T20:30:28;12.9;11.7;8
45112;PMS5003;30873;53.908;27.576;2023-10-13T20:35:28;14.6;12.8;8.3
45112;PMS5003;30873;53.908;27.576;2023-10-13T20:41:14;13.2;11.6;6.8
45112;PMS5003;30873;53.908;27.576;2023-10-13T20:46:04;12.3;11.1;7.2
45112;PMS5003;30873;53.908;27.576;2023-10-13T20:50:55;10.7;9;5.7
45112;PMS5003;30873;53.908;27.576;2023-10-13T20:56:14;8.7;7.1;4.5
45112;PMS5003;30873;53.908;27.576;2023-10-13T21:01:04;9.1;7.2;4.2
45112;PMS5003;30873;53.908;27.576;2023-10-13T21:06:07;8.6;7.4;4.8
45112;PMS5003;30873;53.908;27.576;2023-10-13T21:11:17;9.3;7.1;4.9
45112;PMS5003;30873;53.908;27.576;2023-10-13T21:15:28;9.4;7.3;4.4
45112;PMS5003;30873;53.908;27.576;2023-10-13T21:20:50;9.4;7.9;5.2
45112;PMS5003;30873;53.908;27.576;2023-10-13T21:25:41;10.2;7.3;4.7
45112;PMS5003;30873;53.908;27.576;2023-10-13T21:30:40;8.5;6.4;4.1
45112;PMS5003;30873;53.908;27.576;2023-10-13T21:35:54;7.6;6.7;3.6
45112;PMS5003;30873;53.908;27.576;2023-10-13T21:40:42;6.6;5.9;3.1
45112;PMS5003;30873;53.908;27.576;2023-10-13T21:46:17;7.3;5.7;3.3
45112;PMS5003;30873;53.908;27.576;2023-10-13T21:51:06;7;5.7;3.1
45112;PMS5003;30873;53.908;27.576;2023-10-13T21:55:46;8.5;6.5;3.4
45112;PMS5003;30873;53.908;27.576;2023-10-13T22:01:16;8;6.7;3.6
45112;PMS5003;30873;53.908;27.576;2023-10-13T22:05:52;7.9;6.1;3.3
45112;PMS5003;30873;53.908;27.576;2023-10-13T22:11:09;7.6;6.1;3.3
45112;PMS5003;30873;53.908;27.576;2023-10-13T22:15:29;8.6;7.1;3.7
45112;PMS5003;30873;53.908;27.576;2023-10-13T22:20:32;8.4;6.7;3.9
45112;PMS5003;30873;53.908;27.576;2023-10-13T22:26:03;8.1;6.4;3.8
45112;PMS5003;30873;53.908;27.576;2023-10-13T22:31:03;7.4;6.6;3.3
45112;PMS5003;30873;53.908;27.576;2023-10-13T22:36:17;8.5;7;4
45112;PMS5003;30873;53.908;27.576;2023-10-13T22:41:03;8.4;7;3.8
45112;PMS5003;30873;53.908;27.576;2023-10-13T22:45:47;10.3;8.4;4.8
45112;PMS5003;30873;53.908;27.576;2023-10-13T22:51:15;10.8;8.6;5
45112;PMS5003;30873;53.908;27.576;2023-10-13T22:55:29;13.9;12;7.1
45112;PMS5003;30873;53.908;27.576;2023-10-13T23:00:29;14.3;11.6;7.4
45112;PMS5003;30873;53.908;27.576;2023-10-13T23:05:29;15.3;13;7.9
45112;PMS5003;30873;53.908;27.576;2023-10-13T23:10:39;16.7;13.6;7.8
45112;PMS5003;30873;53.908;27.576;2023-10-13T23:16:03;14.6;11.9;7.1
45112;PMS5003;30873;53.908;27.576;2023-10-13T23:21:03;14;11.5;7.2
45112;PMS5003;30873;53.908;27.576;2023-10-13T23:26:17;14.1;10.8;6.4
45112;PMS5003;30873;53.908;27.576;2023-10-13T23:31:03;13.1;11.5;7.4
45112;PMS5003;30873;53.908;27.576;2023-10-13T23:35:35;15.3;12.4;7.3
45112;PMS5003;30873;53.908;27.576;2023-10-13T23:41:15;14.8;13.4;7.9
45112;PMS5003;30873;53.908;27.576;2023-10-13T23:45:29;15.9;13.4;8.1
45112;PMS5003;30873;53.908;27.576;2023-10-13T23:50:47;17;15.4;9.7
45112;PMS5003;30873;53.908;27.576;2023-10-13T23:55:41;21.1;16.9;10
